sensor_id;sensor_type;location;lat;lon;timestamp;P1;durP1;ratioP1;P2;durP2;ratioP2
36259;SDS011;22296;50.824;5.644;2023-10-08T00:03:32;5.28;;;3.40;;
36259;SDS011;22296;50.824;5.644;2023-10-08T00:06:02;5.95;;;3.75;;
36259;SDS011;22296;50.824;5.644;2023-10-08T00:08:33;5.20;;;4.15;;
36259;SDS011;22296;50.824;5.644;2023-10-08T00:11:00;5.05;;;4.03;;
36259;SDS011;22296;50.824;5.644;2023-10-08T00:13:33;4.45;;;3.25;;
36259;SDS011;22296;50.824;5.644;2023-10-08T00:16:07;4.97;;;3.30;;
36259;SDS011;22296;50.824;5.644;2023-10-08T00:18:45;4.35;;;3.75;;
36259;SDS011;22296;50.824;5.644;2023-10-08T00:21:15;4.22;;;3.35;;
36259;SDS011;22296;50.824;5.644;2023-10-08T00:23:46;4.20;;;3.30;;
36259;SDS011;22296;50.824;5.644;2023-10-08T00:26:20;6.68;;;4.00;;
36259;SDS011;22296;50.824;5.644;2023-10-08T00:28:58;3.72;;;3.28;;
36259;SDS011;22296;50.824;5.644;2023-10-08T00:31:27;5.78;;;3.60;;
36259;SDS011;22296;50.824;5.644;2023-10-08T00:33:58;4.55;;;3.60;;
36259;SDS011;22296;50.824;5.644;2023-10-08T00:36:24;3.85;;;3.40;;
36259;SDS011;22296;50.824;5.644;2023-10-08T00:38:51;4.05;;;3.40;;
36259;SDS011;22296;50.824;5.644;2023-10-08T00:41:21;5.00;;;3.78;;
36259;SDS011;22296;50.824;5.644;2023-10-08T00:43:49;5.25;;;3.53;;
36259;SDS011;22296;50.824;5.644;2023-10-08T00:46:17;4.63;;;3.50;;
36259;SDS011;22296;50.824;5.644;2023-10-08T00:48:50;5.00;;;3.38;;
36259;SDS011;22296;50.824;5.644;2023-10-08T00:51:22;5.07;;;3.47;;
36259;SDS011;22296;50.824;5.644;2023-10-08T00:53:58;5.28;;;3.63;;
36259;SDS011;22296;50.824;5.644;2023-10-08T00:56:33;5.03;;;3.85;;
36259;SDS011;22296;50.824;5.644;2023-10-08T00:59:20;4.55;;;3.53;;
36259;SDS011;22296;50.824;5.644;2023-10-08T01:01:50;5.25;;;3.33;;
36259;SDS011;22296;50.824;5.644;2023-10-08T01:04:18;4.72;;;3.70;;
36259;SDS011;22296;50.824;5.644;2023-10-08T01:06:50;4.95;;;3.75;;
36259;SDS011;22296;50.824;5.644;2023-10-08T01:09:22;5.55;;;3.55;;
36259;SDS011;22296;50.824;5.644;2023-10-08T01:12:08;6.60;;;3.90;;
36259;SDS011;22296;50.824;5.644;2023-10-08T01:14:42;4.85;;;3.72;;
36259;SDS011;22296;50.824;5.644;2023-10-08T01:17:10;4.97;;;3.58;;
36259;SDS011;22296;50.824;5.644;2023-10-08T01:19:45;4.05;;;3.50;;
36259;SDS011;22296;50.824;5.644;2023-10-08T01:22:17;5.68;;;3.67;;
36259;SDS011;22296;50.824;5.644;2023-10-08T01:24:48;4.75;;;3.40;;
36259;SDS011;22296;50.824;5.644;2023-10-08T01:27:16;4.03;;;3.28;;
36259;SDS011;22296;50.824;5.644;2023-10-08T01:29:51;5.57;;;3.75;;
36259;SDS011;22296;50.824;5.644;2023-10-08T01:32:19;4.57;;;3.60;;
36259;SDS011;22296;50.824;5.644;2023-10-08T01:34:47;4.75;;;3.30;;
36259;SDS011;22296;50.824;5.644;2023-10-08T01:37:15;3.90;;;3.47;;
36259;SDS011;22296;50.824;5.644;2023-10-08T01:39:45;4.55;;;3.30;;
36259;SDS011;22296;50.824;5.644;2023-10-08T01:42:12;5.18;;;3.60;;
36259;SDS011;22296;50.824;5.644;2023-10-08T01:44:47;4.38;;;3.50;;
36259;SDS011;22296;50.824;5.644;2023-10-08T01:47:17;3.70;;;3.33;;
36259;SDS011;22296;50.824;5.644;2023-10-08T01:49:45;5.55;;;3.70;;
36259;SDS011;22296;50.824;5.644;2023-10-08T01:52:13;4.20;;;3.50;;
36259;SDS011;22296;50.824;5.644;2023-10-08T01:54:49;4.63;;;3.30;;
36259;SDS011;22296;50.824;5.644;2023-10-08T01:57:16;6.38;;;3.47;;
36259;SDS011;22296;50.824;5.644;2023-10-08T01:59:43;4.10;;;3.50;;
36259;SDS011;22296;50.824;5.644;2023-10-08T02:02:11;4.93;;;3.60;;
36259;SDS011;22296;50.824;5.644;2023-10-08T02:04:42;4.47;;;3.42;;
36259;SDS011;22296;50.824;5.644;2023-10-08T02:07:10;4.23;;;3.47;;
36259;SDS011;22296;50.824;5.644;2023-10-08T02:09:39;6.35;;;3.33;;
36259;SDS011;22296;50.824;5.644;2023-10-08T02:12:08;5.22;;;3.50;;
36259;SDS011;22296;50.824;5.644;2023-10-08T02:14:35;5.53;;;3.13;;
36259;SDS011;22296;50.824;5.644;2023-10-08T02:17:02;4.57;;;3.50;;
36259;SDS011;22296;50.824;5.644;2023-10-08T02:19:33;4.85;;;3.65;;
36259;SDS011;22296;50.824;5.644;2023-10-08T02:22:01;4.07;;;3.35;;
36259;SDS011;22296;50.824;5.644;2023-10-08T02:24:31;5.03;;;3.58;;
36259;SDS011;22296;50.824;5.644;2023-10-08T02:27:00;4.20;;;3.60;;
36259;SDS011;22296;50.824;5.644;2023-10-08T02:29:28;6.30;;;3.47;;
36259;SDS011;22296;50.824;5.644;2023-10-08T02:31:57;4.97;;;3.45;;
36259;SDS011;22296;50.824;5.644;2023-10-08T02:34:25;4.13;;;3.22;;
36259;SDS011;22296;50.824;5.644;2023-10-08T02:36:53;3.85;;;3.22;;
36259;SDS011;22296;50.824;5.644;2023-10-08T02:39:21;5.82;;;3.53;;
36259;SDS011;22296;50.824;5.644;2023-10-08T02:41:52;3.88;;;3.22;;
36259;SDS011;22296;50.824;5.644;2023-10-08T02:44:23;3.75;;;3.10;;
36259;SDS011;22296;50.824;5.644;2023-10-08T02:46:50;5.25;;;3.40;;
36259;SDS011;22296;50.824;5.644;2023-10-08T02:49:19;4.72;;;3.50;;
36259;SDS011;22296;50.824;5.644;2023-10-08T02:51:47;5.35;;;3.63;;
36259;SDS011;22296;50.824;5.644;2023-10-08T02:54:17;3.70;;;3.20;;
36259;SDS011;22296;50.824;5.644;2023-10-08T02:56:45;5.20;;;3.47;;
36259;SDS011;22296;50.824;5.644;2023-10-08T02:59:17;3.35;;;3.03;;
36259;SDS011;22296;50.824;5.644;2023-10-08T03:01:46;3.70;;;3.28;;
36259;SDS011;22296;50.824;5.644;2023-10-08T03:04:14;4.00;;;3.28;;
36259;SDS011;22296;50.824;5.644;2023-10-08T03:06:47;4.68;;;3.13;;
36259;SDS011;22296;50.824;5.644;2023-10-08T03:09:17;4.47;;;3.10;;
36259;SDS011;22296;50.824;5.644;2023-10-08T03:11:48;3.42;;;3.05;;
36259;SDS011;22296;50.824;5.644;2023-10-08T03:14:16;4.00;;;3.15;;
36259;SDS011;22296;50.824;5.644;2023-10-08T03:16:53;4.75;;;3.40;;
36259;SDS011;22296;50.824;5.644;2023-10-08T03:19:33;4.15;;;3.30;;
36259;SDS011;22296;50.824;5.644;2023-10-08T03:22:01;4.07;;;3.13;;
36259;SDS011;22296;50.824;5.644;2023-10-08T03:24:31;4.30;;;3.40;;
36259;SDS011;22296;50.824;5.644;2023-10-08T03:27:01;4.15;;;3.30;;
36259;SDS011;22296;50.824;5.644;2023-10-08T03:29:41;4.28;;;3.20;;
36259;SDS011;22296;50.824;5.644;2023-10-08T03:32:14;4.07;;;3.10;;
36259;SDS011;22296;50.824;5.644;2023-10-08T03:34:45;3.67;;;3.10;;
36259;SDS011;22296;50.824;5.644;2023-10-08T03:37:17;3.75;;;3.00;;
36259;SDS011;22296;50.824;5.644;2023-10-08T03:39:49;4.63;;;3.33;;
36259;SDS011;22296;50.824;5.644;2023-10-08T03:42:27;5.38;;;3.42;;
36259;SDS011;22296;50.824;5.644;2023-10-08T03:45:01;3.92;;;3.20;;
36259;SDS011;22296;50.824;5.644;2023-10-08T03:47:37;3.90;;;3.08;;
36259;SDS011;22296;50.824;5.644;2023-10-08T03:50:05;4.43;;;3.27;;
36259;SDS011;22296;50.824;5.644;2023-10-08T03:52:34;4.25;;;3.33;;
36259;SDS011;22296;50.824;5.644;2023-10-08T03:55:04;4.82;;;3.40;;
36259;SDS011;22296;50.824;5.644;2023-10-08T03:57:46;3.80;;;3.28;;
36259;SDS011;22296;50.824;5.644;2023-10-08T04:00:23;5.07;;;3.38;;
36259;SDS011;22296;50.824;5.644;2023-10-08T04:02:58;5.07;;;3.20;;
36259;SDS011;22296;50.824;5.644;2023-10-08T04:05:35;4.65;;;3.20;;
36259;SDS011;22296;50.824;5.644;2023-10-08T04:08:26;3.97;;;3.10;;
36259;SDS011;22296;50.824;5.644;2023-10-08T04:11:25;4.07;;;3.50;;
36259;SDS011;22296;50.824;5.644;2023-10-08T04:13:59;4.18;;;3.15;;
36259;SDS011;22296;50.824;5.644;2023-10-08T04:16:28;3.50;;;2.75;;
36259;SDS011;22296;50.824;5.644;2023-10-08T04:18:56;3.75;;;3.03;;
36259;SDS011;22296;50.824;5.644;2023-10-08T04:21:23;3.75;;;3.08;;
36259;SDS011;22296;50.824;5.644;2023-10-08T04:23:54;4.22;;;3.40;;
36259;SDS011;22296;50.824;5.644;2023-10-08T04:26:24;3.80;;;3.10;;
36259;SDS011;22296;50.824;5.644;2023-10-08T04:28:54;3.88;;;3.20;;
36259;SDS011;22296;50.824;5.644;2023-10-08T04:31:29;4.25;;;2.97;;
36259;SDS011;22296;50.824;5.644;2023-10-08T04:34:02;3.33;;;2.90;;
36259;SDS011;22296;50.824;5.644;2023-10-08T04:36:36;3.47;;;3.03;;
36259;SDS011;22296;50.824;5.644;2023-10-08T04:39:04;4.07;;;3.17;;
36259;SDS011;22296;50.824;5.644;2023-10-08T04:41:43;4.88;;;3.17;;
36259;SDS011;22296;50.824;5.644;2023-10-08T04:44:10;3.83;;;3.30;;
36259;SDS011;22296;50.824;5.644;2023-10-08T04:46:42;3.50;;;2.95;;
36259;SDS011;22296;50.824;5.644;2023-10-08T04:49:14;4.35;;;3.33;;
36259;SDS011;22296;50.824;5.644;2023-10-08T04:54:28;3.67;;;3.05;;
36259;SDS011;22296;50.824;5.644;2023-10-08T04:57:01;3.53;;;3.13;;
36259;SDS011;22296;50.824;5.644;2023-10-08T04:59:31;4.82;;;3.05;;
36259;SDS011;22296;50.824;5.644;2023-10-08T05:01:59;3.42;;;2.97;;
36259;SDS011;22296;50.824;5.644;2023-10-08T05:04:39;3.63;;;3.08;;
36259;SDS011;22296;50.824;5.644;2023-10-08T05:07:23;4.10;;;3.00;;
36259;SDS011;22296;50.824;5.644;2023-10-08T05:09:53;4.05;;;3.10;;
36259;SDS011;22296;50.824;5.644;2023-10-08T05:12:35;4.05;;;2.90;;
36259;SDS011;22296;50.824;5.644;2023-10-08T05:15:12;4.05;;;3.58;;
36259;SDS011;22296;50.824;5.644;2023-10-08T05:17:46;3.92;;;3.15;;
36259;SDS011;22296;50.824;5.644;2023-10-08T05:20:17;5.00;;;3.40;;
36259;SDS011;22296;50.824;5.644;2023-10-08T05:23:07;3.90;;;3.40;;
36259;SDS011;22296;50.824;5.644;2023-10-08T05:25:47;3.78;;;2.97;;
36259;SDS011;22296;50.824;5.644;2023-10-08T05:28:33;3.45;;;2.83;;
36259;SDS011;22296;50.824;5.644;2023-10-08T05:31:28;4.97;;;3.38;;
36259;SDS011;22296;50.824;5.644;2023-10-08T05:34:13;4.20;;;3.05;;
36259;SDS011;22296;50.824;5.644;2023-10-08T05:36:59;3.28;;;2.97;;
36259;SDS011;22296;50.824;5.644;2023-10-08T05:39:26;4.30;;;3.20;;
36259;SDS011;22296;50.824;5.644;2023-10-08T05:42:07;4.10;;;3.35;;
36259;SDS011;22296;50.824;5.644;2023-10-08T05:44:44;3.15;;;2.70;;
36259;SDS011;22296;50.824;5.644;2023-10-08T05:47:30;4.60;;;3.03;;
36259;SDS011;22296;50.824;5.644;2023-10-08T05:50:00;3.90;;;3.20;;
36259;SDS011;22296;50.824;5.644;2023-10-08T05:52:57;4.05;;;3.22;;
36259;SDS011;22296;50.824;5.644;2023-10-08T05:55:24;3.95;;;3.13;;
36259;SDS011;22296;50.824;5.644;2023-10-08T05:57:53;3.10;;;2.80;;
36259;SDS011;22296;50.824;5.644;2023-10-08T06:00:46;4.03;;;3.08;;
36259;SDS011;22296;50.824;5.644;2023-10-08T06:03:17;4.82;;;3.33;;
36259;SDS011;22296;50.824;5.644;2023-10-08T06:06:05;4.57;;;3.53;;
36259;SDS011;22296;50.824;5.644;2023-10-08T06:08:42;4.07;;;3.10;;
36259;SDS011;22296;50.824;5.644;2023-10-08T06:11:18;5.07;;;3.38;;
36259;SDS011;22296;50.824;5.644;2023-10-08T06:14:04;2.97;;;2.67;;
36259;SDS011;22296;50.824;5.644;2023-10-08T06:16:41;4.70;;;3.10;;
36259;SDS011;22296;50.824;5.644;2023-10-08T06:19:08;3.78;;;3.00;;
36259;SDS011;22296;50.824;5.644;2023-10-08T06:21:37;4.38;;;3.22;;
36259;SDS011;22296;50.824;5.644;2023-10-08T06:24:06;5.18;;;3.15;;
36259;SDS011;22296;50.824;5.644;2023-10-08T06:26:37;3.92;;;3.05;;
36259;SDS011;22296;50.824;5.644;2023-10-08T06:29:15;4.40;;;3.20;;
36259;SDS011;22296;50.824;5.644;2023-10-08T06:31:45;4.70;;;3.17;;
36259;SDS011;22296;50.824;5.644;2023-10-08T06:34:22;3.65;;;3.05;;
36259;SDS011;22296;50.824;5.644;2023-10-08T06:36:51;3.95;;;3.00;;
36259;SDS011;22296;50.824;5.644;2023-10-08T06:39:23;4.22;;;2.70;;
36259;SDS011;22296;50.824;5.644;2023-10-08T06:42:00;3.22;;;2.92;;
36259;SDS011;22296;50.824;5.644;2023-10-08T06:44:31;4.50;;;3.28;;
36259;SDS011;22296;50.824;5.644;2023-10-08T06:46:58;3.90;;;3.00;;
36259;SDS011;22296;50.824;5.644;2023-10-08T06:49:24;4.85;;;3.00;;
36259;SDS011;22296;50.824;5.644;2023-10-08T06:51:53;3.78;;;2.97;;
36259;SDS011;22296;50.824;5.644;2023-10-08T06:54:21;4.82;;;3.42;;
36259;SDS011;22296;50.824;5.644;2023-10-08T06:56:49;3.03;;;2.72;;
36259;SDS011;22296;50.824;5.644;2023-10-08T06:59:19;3.45;;;2.90;;
36259;SDS011;22296;50.824;5.644;2023-10-08T07:01:50;3.67;;;3.25;;
36259;SDS011;22296;50.824;5.644;2023-10-08T07:04:18;3.30;;;2.95;;
36259;SDS011;22296;50.824;5.644;2023-10-08T07:06:46;3.72;;;2.75;;
36259;SDS011;22296;50.824;5.644;2023-10-08T07:09:13;4.38;;;2.90;;
36259;SDS011;22296;50.824;5.644;2023-10-08T07:11:52;4.25;;;3.13;;
36259;SDS011;22296;50.824;5.644;2023-10-08T07:14:22;4.70;;;3.03;;
36259;SDS011;22296;50.824;5.644;2023-10-08T07:16:57;4.35;;;3.20;;
36259;SDS011;22296;50.824;5.644;2023-10-08T07:19:26;4.35;;;3.00;;
36259;SDS011;22296;50.824;5.644;2023-10-08T07:22:05;3.60;;;2.85;;
36259;SDS011;22296;50.824;5.644;2023-10-08T07:24:45;3.05;;;2.72;;
36259;SDS011;22296;50.824;5.644;2023-10-08T07:27:20;4.32;;;3.00;;
36259;SDS011;22296;50.824;5.644;2023-10-08T07:29:57;2.90;;;2.67;;
36259;SDS011;22296;50.824;5.644;2023-10-08T07:32:27;3.67;;;3.17;;
36259;SDS011;22296;50.824;5.644;2023-10-08T07:34:57;3.65;;;3.08;;
36259;SDS011;22296;50.824;5.644;2023-10-08T07:37:41;3.90;;;2.72;;
36259;SDS011;22296;50.824;5.644;2023-10-08T07:40:09;3.97;;;3.10;;
36259;SDS011;22296;50.824;5.644;2023-10-08T07:42:38;4.82;;;3.22;;
36259;SDS011;22296;50.824;5.644;2023-10-08T07:45:05;3.35;;;2.80;;
36259;SDS011;22296;50.824;5.644;2023-10-08T07:47:33;3.30;;;2.70;;
36259;SDS011;22296;50.824;5.644;2023-10-08T07:50:00;3.45;;;3.10;;
36259;SDS011;22296;50.824;5.644;2023-10-08T07:52:27;4.88;;;2.70;;
36259;SDS011;22296;50.824;5.644;2023-10-08T07:54:56;3.67;;;2.83;;
36259;SDS011;22296;50.824;5.644;2023-10-08T07:57:29;4.28;;;3.10;;
36259;SDS011;22296;50.824;5.644;2023-10-08T07:59:57;3.60;;;2.85;;
36259;SDS011;22296;50.824;5.644;2023-10-08T08:02:42;3.40;;;2.80;;
36259;SDS011;22296;50.824;5.644;2023-10-08T08:05:09;3.17;;;2.65;;
36259;SDS011;22296;50.824;5.644;2023-10-08T08:07:41;3.67;;;3.30;;
36259;SDS011;22296;50.824;5.644;2023-10-08T08:10:08;5.28;;;3.03;;
36259;SDS011;22296;50.824;5.644;2023-10-08T08:12:37;3.33;;;2.92;;
36259;SDS011;22296;50.824;5.644;2023-10-08T08:15:04;3.47;;;2.95;;
36259;SDS011;22296;50.824;5.644;2023-10-08T08:17:41;3.40;;;2.80;;
36259;SDS011;22296;50.824;5.644;2023-10-08T08:20:09;4.20;;;3.05;;
36259;SDS011;22296;50.824;5.644;2023-10-08T08:22:45;4.95;;;3.00;;
36259;SDS011;22296;50.824;5.644;2023-10-08T08:25:17;4.40;;;3.35;;
36259;SDS011;22296;50.824;5.644;2023-10-08T08:27:53;3.50;;;2.72;;
36259;SDS011;22296;50.824;5.644;2023-10-08T08:30:20;3.55;;;2.90;;
36259;SDS011;22296;50.824;5.644;2023-10-08T08:32:53;3.38;;;3.03;;
36259;SDS011;22296;50.824;5.644;2023-10-08T08:35:22;4.75;;;3.25;;
36259;SDS011;22296;50.824;5.644;2023-10-08T08:37:50;2.88;;;2.58;;
36259;SDS011;22296;50.824;5.644;2023-10-08T08:40:20;3.80;;;3.20;;
36259;SDS011;22296;50.824;5.644;2023-10-08T08:42:51;3.72;;;3.20;;
36259;SDS011;22296;50.824;5.644;2023-10-08T08:45:20;3.70;;;2.92;;
36259;SDS011;22296;50.824;5.644;2023-10-08T08:47:48;3.80;;;2.90;;
36259;SDS011;22296;50.824;5.644;2023-10-08T08:50:15;4.30;;;3.28;;
36259;SDS011;22296;50.824;5.644;2023-10-08T08:52:44;4.20;;;3.00;;
36259;SDS011;22296;50.824;5.644;2023-10-08T08:55:12;3.97;;;2.97;;
36259;SDS011;22296;50.824;5.644;2023-10-08T08:57:47;4.82;;;3.13;;
36259;SDS011;22296;50.824;5.644;2023-10-08T09:00:15;4.50;;;3.00;;
36259;SDS011;22296;50.824;5.644;2023-10-08T09:02:44;4.10;;;3.00;;
36259;SDS011;22296;50.824;5.644;2023-10-08T09:05:14;5.32;;;3.22;;
36259;SDS011;22296;50.824;5.644;2023-10-08T09:08:02;3.35;;;2.70;;
36259;SDS011;22296;50.824;5.644;2023-10-08T09:10:36;5.00;;;3.10;;
36259;SDS011;22296;50.824;5.644;2023-10-08T09:13:05;3.17;;;2.85;;
36259;SDS011;22296;50.824;5.644;2023-10-08T09:15:35;4.68;;;2.88;;
36259;SDS011;22296;50.824;5.644;2023-10-08T09:18:05;4.90;;;3.30;;
36259;SDS011;22296;50.824;5.644;2023-10-08T09:20:37;4.63;;;3.40;;
36259;SDS011;22296;50.824;5.644;2023-10-08T09:23:14;4.45;;;3.28;;
36259;SDS011;22296;50.824;5.644;2023-10-08T09:25:44;3.42;;;2.90;;
36259;SDS011;22296;50.824;5.644;2023-10-08T09:28:15;4.15;;;2.95;;
36259;SDS011;22296;50.824;5.644;2023-10-08T09:30:43;3.72;;;2.88;;
36259;SDS011;22296;50.824;5.644;2023-10-08T09:33:12;3.60;;;2.80;;
36259;SDS011;22296;50.824;5.644;2023-10-08T09:35:40;3.83;;;3.20;;
36259;SDS011;22296;50.824;5.644;2023-10-08T09:38:10;3.92;;;3.00;;
36259;SDS011;22296;50.824;5.644;2023-10-08T09:40:39;3.50;;;3.07;;
36259;SDS011;22296;50.824;5.644;2023-10-08T09:43:11;4.78;;;2.97;;
36259;SDS011;22296;50.824;5.644;2023-10-08T09:45:38;3.63;;;3.00;;
36259;SDS011;22296;50.824;5.644;2023-10-08T09:48:10;4.50;;;3.10;;
36259;SDS011;22296;50.824;5.644;2023-10-08T09:50:40;4.75;;;2.97;;
36259;SDS011;22296;50.824;5.644;2023-10-08T09:53:12;4.50;;;2.97;;
36259;SDS011;22296;50.824;5.644;2023-10-08T09:55:54;3.70;;;2.97;;
36259;SDS011;22296;50.824;5.644;2023-10-08T09:58:21;4.80;;;3.17;;
36259;SDS011;22296;50.824;5.644;2023-10-08T10:00:51;4.00;;;3.10;;
36259;SDS011;22296;50.824;5.644;2023-10-08T10:03:24;4.15;;;3.25;;
36259;SDS011;22296;50.824;5.644;2023-10-08T10:05:53;3.63;;;3.22;;
36259;SDS011;22296;50.824;5.644;2023-10-08T10:08:25;5.00;;;3.10;;
36259;SDS011;22296;50.824;5.644;2023-10-08T10:10:58;5.20;;;3.45;;
36259;SDS011;22296;50.824;5.644;2023-10-08T10:13:29;4.50;;;3.40;;
36259;SDS011;22296;50.824;5.644;2023-10-08T10:16:04;4.32;;;3.60;;
36259;SDS011;22296;50.824;5.644;2023-10-08T10:18:34;3.33;;;2.97;;
36259;SDS011;22296;50.824;5.644;2023-10-08T10:23:40;4.18;;;3.22;;
36259;SDS011;22296;50.824;5.644;2023-10-08T10:26:28;5.40;;;3.35;;
36259;SDS011;22296;50.824;5.644;2023-10-08T10:31:43;5.82;;;3.92;;
36259;SDS011;22296;50.824;5.644;2023-10-08T10:34:14;3.90;;;2.88;;
36259;SDS011;22296;50.824;5.644;2023-10-08T10:36:45;5.30;;;3.20;;
36259;SDS011;22296;50.824;5.644;2023-10-08T10:39:21;4.00;;;3.10;;
36259;SDS011;22296;50.824;5.644;2023-10-08T10:42:00;5.80;;;3.60;;
36259;SDS011;22296;50.824;5.644;2023-10-08T10:44:32;6.90;;;4.03;;
36259;SDS011;22296;50.824;5.644;2023-10-08T10:47:03;5.57;;;3.85;;
36259;SDS011;22296;50.824;5.644;2023-10-08T10:52:22;4.88;;;3.47;;
36259;SDS011;22296;50.824;5.644;2023-10-08T10:55:13;4.63;;;3.70;;
36259;SDS011;22296;50.824;5.644;2023-10-08T10:57:42;4.75;;;3.90;;
36259;SDS011;22296;50.824;5.644;2023-10-08T11:00:10;8.48;;;3.72;;
36259;SDS011;22296;50.824;5.644;2023-10-08T11:02:56;5.05;;;3.60;;
36259;SDS011;22296;50.824;5.644;2023-10-08T11:05:26;6.75;;;4.07;;
36259;SDS011;22296;50.824;5.644;2023-10-08T11:07:58;5.68;;;3.97;;
36259;SDS011;22296;50.824;5.644;2023-10-08T11:10:37;4.82;;;3.53;;
36259;SDS011;22296;50.824;5.644;2023-10-08T11:13:05;5.20;;;3.28;;
36259;SDS011;22296;50.824;5.644;2023-10-08T11:15:44;6.35;;;3.90;;
36259;SDS011;22296;50.824;5.644;2023-10-08T11:18:17;4.38;;;3.50;;
36259;SDS011;22296;50.824;5.644;2023-10-08T11:20:46;5.38;;;3.58;;
36259;SDS011;22296;50.824;5.644;2023-10-08T11:23:34;5.68;;;3.50;;
36259;SDS011;22296;50.824;5.644;2023-10-08T11:26:03;5.32;;;3.90;;
36259;SDS011;22296;50.824;5.644;2023-10-08T11:28:36;6.38;;;4.05;;
36259;SDS011;22296;50.824;5.644;2023-10-08T11:31:10;5.72;;;3.67;;
36259;SDS011;22296;50.824;5.644;2023-10-08T11:33:38;5.35;;;3.63;;
36259;SDS011;22296;50.824;5.644;2023-10-08T11:36:08;5.93;;;3.80;;
36259;SDS011;22296;50.824;5.644;2023-10-08T11:38:45;6.77;;;4.00;;
36259;SDS011;22296;50.824;5.644;2023-10-08T11:41:17;6.22;;;4.13;;
36259;SDS011;22296;50.824;5.644;2023-10-08T11:43:53;5.20;;;3.67;;
36259;SDS011;22296;50.824;5.644;2023-10-08T11:48:59;5.25;;;3.90;;
36259;SDS011;22296;50.824;5.644;2023-10-08T11:51:31;5.57;;;3.40;;
36259;SDS011;22296;50.824;5.644;2023-10-08T11:54:02;6.13;;;3.40;;
36259;SDS011;22296;50.824;5.644;2023-10-08T11:56:33;4.43;;;3.25;;
36259;SDS011;22296;50.824;5.644;2023-10-08T11:59:03;6.10;;;4.28;;
36259;SDS011;22296;50.824;5.644;2023-10-08T12:01:38;7.40;;;4.45;;
36259;SDS011;22296;50.824;5.644;2023-10-08T12:04:12;5.18;;;4.10;;
36259;SDS011;22296;50.824;5.644;2023-10-08T12:06:43;5.50;;;3.67;;
36259;SDS011;22296;50.824;5.644;2023-10-08T12:09:13;5.90;;;3.90;;
36259;SDS011;22296;50.824;5.644;2023-10-08T12:11:41;7.60;;;4.00;;
36259;SDS011;22296;50.824;5.644;2023-10-08T12:14:09;6.53;;;4.03;;
36259;SDS011;22296;50.824;5.644;2023-10-08T12:16:37;5.73;;;3.90;;
36259;SDS011;22296;50.824;5.644;2023-10-08T12:19:06;5.00;;;3.35;;
36259;SDS011;22296;50.824;5.644;2023-10-08T12:21:43;4.90;;;3.63;;
36259;SDS011;22296;50.824;5.644;2023-10-08T12:24:16;6.68;;;4.00;;
36259;SDS011;22296;50.824;5.644;2023-10-08T12:26:43;7.35;;;4.10;;
36259;SDS011;22296;50.824;5.644;2023-10-08T12:29:19;6.22;;;4.40;;
36259;SDS011;22296;50.824;5.644;2023-10-08T12:31:48;6.97;;;3.80;;
36259;SDS011;22296;50.824;5.644;2023-10-08T12:34:15;5.95;;;3.90;;
36259;SDS011;22296;50.824;5.644;2023-10-08T12:36:43;6.93;;;4.00;;
36259;SDS011;22296;50.824;5.644;2023-10-08T12:39:12;6.95;;;4.47;;
36259;SDS011;22296;50.824;5.644;2023-10-08T12:41:45;6.10;;;3.58;;
36259;SDS011;22296;50.824;5.644;2023-10-08T12:44:12;5.10;;;4.00;;
36259;SDS011;22296;50.824;5.644;2023-10-08T12:46:42;5.53;;;4.03;;
36259;SDS011;22296;50.824;5.644;2023-10-08T12:49:10;6.38;;;4.18;;
36259;SDS011;22296;50.824;5.644;2023-10-08T12:51:37;6.07;;;4.10;;
36259;SDS011;22296;50.824;5.644;2023-10-08T12:54:08;8.40;;;4.68;;
36259;SDS011;22296;50.824;5.644;2023-10-08T12:56:40;6.82;;;4.00;;
36259;SDS011;22296;50.824;5.644;2023-10-08T12:59:15;6.18;;;4.07;;
36259;SDS011;22296;50.824;5.644;2023-10-08T13:01:51;6.00;;;3.83;;
36259;SDS011;22296;50.824;5.644;2023-10-08T13:04:18;6.53;;;3.97;;
36259;SDS011;22296;50.824;5.644;2023-10-08T13:06:54;6.63;;;4.13;;
36259;SDS011;22296;50.824;5.644;2023-10-08T13:09:31;7.38;;;3.80;;
36259;SDS011;22296;50.824;5.644;2023-10-08T13:11:58;6.28;;;3.85;;
36259;SDS011;22296;50.824;5.644;2023-10-08T13:14:26;7.20;;;4.00;;
36259;SDS011;22296;50.824;5.644;2023-10-08T13:16:53;5.93;;;4.10;;
36259;SDS011;22296;50.824;5.644;2023-10-08T13:19:20;5.88;;;4.18;;
36259;SDS011;22296;50.824;5.644;2023-10-08T13:21:50;5.25;;;3.45;;
36259;SDS011;22296;50.824;5.644;2023-10-08T13:24:19;5.93;;;4.20;;
36259;SDS011;22296;50.824;5.644;2023-10-08T13:26:50;6.00;;;4.13;;
36259;SDS011;22296;50.824;5.644;2023-10-08T13:29:17;5.80;;;3.83;;
36259;SDS011;22296;50.824;5.644;2023-10-08T13:31:45;5.28;;;4.10;;
36259;SDS011;22296;50.824;5.644;2023-10-08T13:34:13;6.20;;;3.90;;
36259;SDS011;22296;50.824;5.644;2023-10-08T13:36:43;4.80;;;3.67;;
36259;SDS011;22296;50.824;5.644;2023-10-08T13:39:14;7.85;;;3.83;;
36259;SDS011;22296;50.824;5.644;2023-10-08T13:41:45;7.75;;;4.15;;
36259;SDS011;22296;50.824;5.644;2023-10-08T13:44:15;5.60;;;4.00;;
36259;SDS011;22296;50.824;5.644;2023-10-08T13:46:43;6.28;;;3.40;;
36259;SDS011;22296;50.824;5.644;2023-10-08T13:49:16;5.15;;;3.55;;
36259;SDS011;22296;50.824;5.644;2023-10-08T13:51:45;5.70;;;3.70;;
36259;SDS011;22296;50.824;5.644;2023-10-08T13:54:13;6.57;;;4.13;;
36259;SDS011;22296;50.824;5.644;2023-10-08T13:56:44;7.13;;;3.93;;
36259;SDS011;22296;50.824;5.644;2023-10-08T13:59:15;7.22;;;3.70;;
36259;SDS011;22296;50.824;5.644;2023-10-08T14:01:44;7.60;;;3.92;;
36259;SDS011;22296;50.824;5.644;2023-10-08T14:04:19;6.22;;;3.92;;
36259;SDS011;22296;50.824;5.644;2023-10-08T14:06:47;5.90;;;3.80;;
36259;SDS011;22296;50.824;5.644;2023-10-08T14:09:19;6.82;;;3.90;;
36259;SDS011;22296;50.824;5.644;2023-10-08T14:12:02;6.15;;;4.03;;
36259;SDS011;22296;50.824;5.644;2023-10-08T14:14:30;7.60;;;3.70;;
36259;SDS011;22296;50.824;5.644;2023-10-08T14:16:58;4.65;;;3.40;;
36259;SDS011;22296;50.824;5.644;2023-10-08T14:19:35;6.65;;;3.70;;
36259;SDS011;22296;50.824;5.644;2023-10-08T14:22:06;5.50;;;3.75;;
36259;SDS011;22296;50.824;5.644;2023-10-08T14:24:35;5.80;;;3.60;;
36259;SDS011;22296;50.824;5.644;2023-10-08T14:27:05;8.40;;;4.55;;
36259;SDS011;22296;50.824;5.644;2023-10-08T14:29:42;7.10;;;3.60;;
36259;SDS011;22296;50.824;5.644;2023-10-08T14:32:13;7.38;;;4.00;;
36259;SDS011;22296;50.824;5.644;2023-10-08T14:34:42;5.70;;;3.93;;
36259;SDS011;22296;50.824;5.644;2023-10-08T14:37:22;5.88;;;3.47;;
36259;SDS011;22296;50.824;5.644;2023-10-08T14:40:08;5.38;;;3.92;;
36259;SDS011;22296;50.824;5.644;2023-10-08T14:42:53;4.70;;;3.63;;
36259;SDS011;22296;50.824;5.644;2023-10-08T14:45:29;5.10;;;3.72;;
36259;SDS011;22296;50.824;5.644;2023-10-08T14:48:02;6.15;;;3.60;;
36259;SDS011;22296;50.824;5.644;2023-10-08T14:50:33;6.90;;;3.70;;
36259;SDS011;22296;50.824;5.644;2023-10-08T14:53:00;6.55;;;3.88;;
36259;SDS011;22296;50.824;5.644;2023-10-08T14:55:28;5.75;;;3.53;;
36259;SDS011;22296;50.824;5.644;2023-10-08T14:57:56;4.77;;;3.33;;
36259;SDS011;22296;50.824;5.644;2023-10-08T15:00:23;7.00;;;3.42;;
36259;SDS011;22296;50.824;5.644;2023-10-08T15:02:53;5.05;;;3.75;;
36259;SDS011;22296;50.824;5.644;2023-10-08T15:05:21;6.05;;;3.42;;
36259;SDS011;22296;50.824;5.644;2023-10-08T15:07:49;5.93;;;3.92;;
36259;SDS011;22296;50.824;5.644;2023-10-08T15:10:18;5.25;;;3.75;;
36259;SDS011;22296;50.824;5.644;2023-10-08T15:12:48;5.82;;;3.90;;
36259;SDS011;22296;50.824;5.644;2023-10-08T15:15:18;6.85;;;4.03;;
36259;SDS011;22296;50.824;5.644;2023-10-08T15:17:46;4.00;;;3.17;;
36259;SDS011;22296;50.824;5.644;2023-10-08T15:20:16;6.88;;;3.60;;
36259;SDS011;22296;50.824;5.644;2023-10-08T15:22:48;4.65;;;3.17;;
36259;SDS011;22296;50.824;5.644;2023-10-08T15:25:16;5.78;;;3.65;;
36259;SDS011;22296;50.824;5.644;2023-10-08T15:27:44;7.33;;;4.07;;
36259;SDS011;22296;50.824;5.644;2023-10-08T15:30:14;4.63;;;3.50;;
36259;SDS011;22296;50.824;5.644;2023-10-08T15:32:44;5.60;;;3.67;;